Impacts TAF Board INFO
FOR SITUATIONAL AWARENESS. NOT TO BE USED FOR FLIGHT PLANNING PURPOSES.
IDs:

KPDX - Portland Intl Arpt, OR, US

Issued at 1140 UTC 18 Jan 2018
Updated at 1155 UTC 18 Jan 2018
Potential Impact None Slight Moderate High
Time<<19/00Z 19/01Z 19/02Z 19/03Z 19/04Z 19/05Z 19/06Z 19/07Z 19/08Z 19/09Z 19/10Z 19/11Z 19/12Z>>
Type PRVL PRVL PRVL PRVL PRVL PRVL PRVL PRVL PRVL PRVL PRVL PRVL
VIS >6 >6 >6 >6 >6 >6 >6 >6 >6 >6 >6 >6
CIG 35 35 35 35 50 50 50 50 50 50 50 50
Cover OVC OVC OVC OVC OVC OVC OVC OVC OVC OVC OVC OVC
FltCat VFR VFR VFR VFR VFR VFR VFR VFR VFR VFR VFR VFR
WX -SHRA -SHRA -SHRA -SHRA -SHRA -SHRA -SHRA -SHRA -SHRA -SHRA -SHRA -SHRA
WDir 190 190 190 190 160 160 160 160 160 160 160 160
WSpd 8 8 8 8 8 8 8 8 8 8 8 8
WGst -- -- -- -- -- -- -- -- -- -- -- --

Raw TAF
KPDX 181140Z 1812/1912 18008G18KT P6SM -SHRA FEW025 BKN050 OVC070
  FM182200 19008KT P6SM -SHRA SCT020 BKN035 OVC060
  FM190400 16008KT P6SM -SHRA OVC050


METAR Board
Radar Display
Forecast Discussion

FOR SITUATIONAL AWARENESS. NOT TO BE USED FOR FLIGHT PLANNING PURPOSES.